sensor_id;sensor_type;location;lat;lon;timestamp;P1;durP1;ratioP1;P2;durP2;ratioP2
2756;SDS011;1386;50.862;6.494;2023-05-08T05:43:52;9.33;;;8.03;;
2756;SDS011;1386;50.862;6.494;2023-05-08T05:46:19;8.73;;;7.63;;
2756;SDS011;1386;50.862;6.494;2023-05-08T05:48:50;10.30;;;8.60;;
2756;SDS011;1386;50.862;6.494;2023-05-08T05:51:18;12.50;;;8.80;;
2756;SDS011;1386;50.862;6.494;2023-05-08T05:53:44;11.63;;;10.43;;
2756;SDS011;1386;50.862;6.494;2023-05-08T05:56:11;12.33;;;10.30;;
2756;SDS011;1386;50.862;6.494;2023-05-08T05:58:38;11.57;;;10.37;;
2756;SDS011;1386;50.862;6.494;2023-05-08T06:01:10;11.03;;;9.77;;
2756;SDS011;1386;50.862;6.494;2023-05-08T06:03:37;12.43;;;10.67;;
2756;SDS011;1386;50.862;6.494;2023-05-08T06:06:04;12.03;;;9.83;;
2756;SDS011;1386;50.862;6.494;2023-05-08T06:08:31;14.70;;;11.50;;
2756;SDS011;1386;50.862;6.494;2023-05-08T06:10:58;12.73;;;10.83;;
2756;SDS011;1386;50.862;6.494;2023-05-08T06:13:24;12.20;;;10.53;;
2756;SDS011;1386;50.862;6.494;2023-05-08T06:15:52;12.97;;;10.30;;
2756;SDS011;1386;50.862;6.494;2023-05-08T06:18:22;14.33;;;11.07;;
2756;SDS011;1386;50.862;6.494;2023-05-08T06:20:53;10.60;;;9.43;;
2756;SDS011;1386;50.862;6.494;2023-05-08T06:23:21;12.47;;;10.40;;
2756;SDS011;1386;50.862;6.494;2023-05-08T06:25:48;10.83;;;9.73;;
2756;SDS011;1386;50.862;6.494;2023-05-08T06:28:15;11.07;;;9.63;;
2756;SDS011;1386;50.862;6.494;2023-05-08T06:30:42;9.17;;;8.23;;
2756;SDS011;1386;50.862;6.494;2023-05-08T06:33:09;10.83;;;8.83;;
2756;SDS011;1386;50.862;6.494;2023-05-08T06:35:38;8.60;;;7.80;;
2756;SDS011;1386;50.862;6.494;2023-05-08T06:38:04;9.83;;;8.17;;
2756;SDS011;1386;50.862;6.494;2023-05-08T06:40:31;8.90;;;8.03;;
2756;SDS011;1386;50.862;6.494;2023-05-08T06:42:58;9.60;;;7.70;;
2756;SDS011;1386;50.862;6.494;2023-05-08T06:45:25;8.83;;;8.03;;
2756;SDS011;1386;50.862;6.494;2023-05-08T06:47:52;11.97;;;7.53;;
2756;SDS011;1386;50.862;6.494;2023-05-08T06:50:19;9.03;;;8.13;;
2756;SDS011;1386;50.862;6.494;2023-05-08T06:52:47;9.30;;;8.03;;
2756;SDS011;1386;50.862;6.494;2023-05-08T06:55:14;9.43;;;8.53;;
2756;SDS011;1386;50.862;6.494;2023-05-08T06:57:41;9.10;;;8.20;;
2756;SDS011;1386;50.862;6.494;2023-05-08T07:05:13;8.97;;;8.07;;
2756;SDS011;1386;50.862;6.494;2023-05-08T07:08:08;9.33;;;8.13;;
2756;SDS011;1386;50.862;6.494;2023-05-08T07:10:58;8.73;;;7.80;;
2756;SDS011;1386;50.862;6.494;2023-05-08T07:16:32;9.57;;;7.37;;
2756;SDS011;1386;50.862;6.494;2023-05-08T07:19:48;9.53;;;7.50;;
2756;SDS011;1386;50.862;6.494;2023-05-08T07:25:52;8.50;;;7.60;;
2756;SDS011;1386;50.862;6.494;2023-05-08T07:28:22;7.47;;;6.57;;
2756;SDS011;1386;50.862;6.494;2023-05-08T07:30:49;10.53;;;6.77;;
2756;SDS011;1386;50.862;6.494;2023-05-08T07:33:16;6.93;;;5.63;;
2756;SDS011;1386;50.862;6.494;2023-05-08T07:35:43;6.40;;;5.70;;
2756;SDS011;1386;50.862;6.494;2023-05-08T07:38:11;7.73;;;6.70;;
2756;SDS011;1386;50.862;6.494;2023-05-08T07:40:37;7.40;;;6.60;;
2756;SDS011;1386;50.862;6.494;2023-05-08T07:43:21;13.67;;;6.60;;
2756;SDS011;1386;50.862;6.494;2023-05-08T07:45:48;7.80;;;6.53;;
2756;SDS011;1386;50.862;6.494;2023-05-08T07:48:15;7.03;;;6.33;;
2756;SDS011;1386;50.862;6.494;2023-05-08T07:50:41;6.73;;;6.03;;
2756;SDS011;1386;50.862;6.494;2023-05-08T07:53:08;8.80;;;6.67;;
2756;SDS011;1386;50.862;6.494;2023-05-08T07:55:35;8.73;;;7.50;;
2756;SDS011;1386;50.862;6.494;2023-05-08T07:58:09;8.83;;;7.23;;
2756;SDS011;1386;50.862;6.494;2023-05-08T08:00:40;8.97;;;6.90;;
2756;SDS011;1386;50.862;6.494;2023-05-08T08:03:06;7.90;;;7.10;;
2756;SDS011;1386;50.862;6.494;2023-05-08T08:05:33;9.53;;;6.50;;
2756;SDS011;1386;50.862;6.494;2023-05-08T08:08:00;11.30;;;7.10;;
2756;SDS011;1386;50.862;6.494;2023-05-08T08:10:27;8.13;;;7.17;;
2756;SDS011;1386;50.862;6.494;2023-05-08T08:12:54;7.77;;;6.87;;
2756;SDS011;1386;50.862;6.494;2023-05-08T08:15:21;9.80;;;7.10;;
2756;SDS011;1386;50.862;6.494;2023-05-08T08:18:01;8.00;;;6.57;;
2756;SDS011;1386;50.862;6.494;2023-05-08T08:20:28;7.90;;;7.10;;
2756;SDS011;1386;50.862;6.494;2023-05-08T08:22:56;12.17;;;7.00;;
2756;SDS011;1386;50.862;6.494;2023-05-08T08:25:26;7.10;;;6.23;;
2756;SDS011;1386;50.862;6.494;2023-05-08T08:27:53;9.07;;;5.70;;
2756;SDS011;1386;50.862;6.494;2023-05-08T08:30:31;10.20;;;6.40;;
2756;SDS011;1386;50.862;6.494;2023-05-08T08:33:00;10.80;;;6.30;;
2756;SDS011;1386;50.862;6.494;2023-05-08T08:35:32;7.87;;;6.10;;
2756;SDS011;1386;50.862;6.494;2023-05-08T08:38:04;7.53;;;5.37;;
2756;SDS011;1386;50.862;6.494;2023-05-08T08:40:50;6.67;;;5.97;;
2756;SDS011;1386;50.862;6.494;2023-05-08T08:43:27;6.93;;;5.47;;
2756;SDS011;1386;50.862;6.494;2023-05-08T08:45:56;8.27;;;6.37;;
2756;SDS011;1386;50.862;6.494;2023-05-08T08:48:28;6.57;;;4.80;;
2756;SDS011;1386;50.862;6.494;2023-05-08T08:51:04;5.20;;;4.40;;
2756;SDS011;1386;50.862;6.494;2023-05-08T08:53:43;7.53;;;4.33;;
2756;SDS011;1386;50.862;6.494;2023-05-08T08:56:39;4.80;;;4.27;;
2756;SDS011;1386;50.862;6.494;2023-05-08T08:59:40;6.30;;;4.53;;
2756;SDS011;1386;50.862;6.494;2023-05-08T09:02:10;6.07;;;3.73;;
2756;SDS011;1386;50.862;6.494;2023-05-08T09:15:05;3.70;;;3.40;;
2756;SDS011;1386;50.862;6.494;2023-05-08T09:17:41;4.77;;;4.27;;
2756;SDS011;1386;50.862;6.494;2023-05-08T09:20:30;5.40;;;4.67;;
2756;SDS011;1386;50.862;6.494;2023-05-08T09:25:56;5.10;;;4.30;;
2756;SDS011;1386;50.862;6.494;2023-05-08T09:52:00;7.63;;;6.17;;
2756;SDS011;1386;50.862;6.494;2023-05-08T09:55:31;7.03;;;5.30;;
2756;SDS011;1386;50.862;6.494;2023-05-08T09:58:11;5.67;;;5.17;;
2756;SDS011;1386;50.862;6.494;2023-05-08T10:00:42;7.10;;;5.90;;
2756;SDS011;1386;50.862;6.494;2023-05-08T10:03:10;5.80;;;5.30;;
2756;SDS011;1386;50.862;6.494;2023-05-08T10:05:42;8.80;;;6.20;;
2756;SDS011;1386;50.862;6.494;2023-05-08T10:08:24;7.63;;;5.90;;
2756;SDS011;1386;50.862;6.494;2023-05-08T10:11:13;7.30;;;5.90;;
2756;SDS011;1386;50.862;6.494;2023-05-08T10:13:41;6.70;;;6.10;;
2756;SDS011;1386;50.862;6.494;2023-05-08T10:16:34;7.90;;;5.47;;
2756;SDS011;1386;50.862;6.494;2023-05-08T10:20:30;8.63;;;6.67;;
2756;SDS011;1386;50.862;6.494;2023-05-08T10:23:06;6.00;;;5.40;;
2756;SDS011;1386;50.862;6.494;2023-05-08T13:01:50;6.43;;;5.73;;
2756;SDS011;1386;50.862;6.494;2023-05-08T13:04:17;6.60;;;5.33;;
2756;SDS011;1386;50.862;6.494;2023-05-08T13:06:52;10.63;;;5.83;;
2756;SDS011;1386;50.862;6.494;2023-05-08T13:09:19;8.13;;;5.50;;
2756;SDS011;1386;50.862;6.494;2023-05-08T13:11:47;7.00;;;5.60;;
2756;SDS011;1386;50.862;6.494;2023-05-08T13:14:14;6.97;;;6.13;;
2756;SDS011;1386;50.862;6.494;2023-05-08T13:16:41;9.07;;;7.00;;
2756;SDS011;1386;50.862;6.494;2023-05-08T13:19:10;5.53;;;5.03;;
2756;SDS011;1386;50.862;6.494;2023-05-08T13:21:38;5.73;;;4.90;;
2756;SDS011;1386;50.862;6.494;2023-05-08T13:24:05;7.27;;;5.77;;
2756;SDS011;1386;50.862;6.494;2023-05-08T13:26:33;6.37;;;5.77;;
2756;SDS011;1386;50.862;6.494;2023-05-08T13:29:00;6.83;;;5.30;;
2756;SDS011;1386;50.862;6.494;2023-05-08T13:31:27;6.60;;;5.90;;
2756;SDS011;1386;50.862;6.494;2023-05-08T13:33:54;5.47;;;4.97;;
2756;SDS011;1386;50.862;6.494;2023-05-08T13:36:22;6.23;;;5.07;;
2756;SDS011;1386;50.862;6.494;2023-05-08T13:38:50;4.93;;;4.43;;
2756;SDS011;1386;50.862;6.494;2023-05-08T13:41:19;4.67;;;4.27;;
2756;SDS011;1386;50.862;6.494;2023-05-08T13:43:46;6.10;;;4.23;;
2756;SDS011;1386;50.862;6.494;2023-05-08T13:46:13;4.53;;;4.13;;
2756;SDS011;1386;50.862;6.494;2023-05-08T13:48:40;4.77;;;4.27;;
2756;SDS011;1386;50.862;6.494;2023-05-08T13:51:07;6.53;;;4.83;;
2756;SDS011;1386;50.862;6.494;2023-05-08T13:53:35;5.43;;;4.70;;
2756;SDS011;1386;50.862;6.494;2023-05-08T13:56:03;6.93;;;5.00;;
2756;SDS011;1386;50.862;6.494;2023-05-08T13:58:30;5.97;;;4.70;;
2756;SDS011;1386;50.862;6.494;2023-05-08T14:00:57;5.03;;;4.57;;
2756;SDS011;1386;50.862;6.494;2023-05-08T14:03:24;6.00;;;4.50;;
2756;SDS011;1386;50.862;6.494;2023-05-08T14:05:51;5.70;;;4.80;;
2756;SDS011;1386;50.862;6.494;2023-05-08T14:08:18;5.90;;;4.20;;
2756;SDS011;1386;50.862;6.494;2023-05-08T14:10:46;4.80;;;4.20;;
2756;SDS011;1386;50.862;6.494;2023-05-08T14:13:13;5.00;;;3.90;;
2756;SDS011;1386;50.862;6.494;2023-05-08T14:15:43;4.30;;;3.87;;
2756;SDS011;1386;50.862;6.494;2023-05-08T14:18:30;6.10;;;4.33;;
2756;SDS011;1386;50.862;6.494;2023-05-08T16:52:00;8.10;;;6.10;;
2756;SDS011;1386;50.862;6.494;2023-05-08T16:54:29;7.80;;;6.60;;
2756;SDS011;1386;50.862;6.494;2023-05-08T16:56:56;8.73;;;7.83;;
2756;SDS011;1386;50.862;6.494;2023-05-08T16:59:26;9.60;;;7.07;;
2756;SDS011;1386;50.862;6.494;2023-05-08T17:01:53;7.80;;;6.80;;
2756;SDS011;1386;50.862;6.494;2023-05-08T17:04:20;9.13;;;7.93;;
2756;SDS011;1386;50.862;6.494;2023-05-08T17:06:48;7.80;;;6.90;;
